Time;durP1;ratioP1;P1;durP2;ratioP2;P2;SDS_P1;SDS_P2;PMS_P1;PMS_P2;Temp;Humidity;BMP_temperature;BMP_pressure;BME280_temperature;BME280_humidity;BME280_pressure;Samples;Min_cycle;Max_cycle;Signal;HPM_P1;HPM_P2
2022/09/22 00:02:02;;;;;;;6.13;4.05;;;;;;;;;;5049168;28;20118;-81
2022/09/22 00:04:28;;;;;;;7.10;3.85;;;;;;;;;;5046961;28;20458;-82
2022/09/22 00:06:56;;;;;;;5.22;3.88;;;;;;;;;;5038982;28;20160;-82
2022/09/22 00:09:22;;;;;;;7.63;3.83;;;;;;;;;;5045750;28;20052;-82
2022/09/22 00:11:50;;;;;;;6.90;4.68;;;;;;;;;;5044942;28;20037;-82
2022/09/22 00:14:16;;;;;;;10.05;5.13;;;;;;;;;;5043131;28;20049;-82
2022/09/22 00:16:43;;;;;;;6.63;4.60;;;;;;;;;;5045413;28;20426;-82
2022/09/22 00:19:20;;;;;;;6.50;4.65;;;;;;;;;;5039657;28;20060;-82
2022/09/22 00:21:46;;;;;;;4.80;4.30;;;;;;;;;;5056281;28;20033;-82
2022/09/22 00:24:13;;;;;;;4.88;3.78;;;;;;;;;;5045016;28;20550;-82
2022/09/22 00:26:39;;;;;;;7.43;4.35;;;;;;;;;;5045161;28;21572;-82
2022/09/22 00:29:08;;;;;;;6.10;4.45;;;;;;;;;;5047012;28;20048;-82
2022/09/22 00:31:34;;;;;;;10.07;4.53;;;;;;;;;;5049714;28;20045;-82
2022/09/22 00:34:01;;;;;;;10.02;4.40;;;;;;;;;;5041725;28;20063;-81
2022/09/22 00:36:27;;;;;;;6.60;4.88;;;;;;;;;;5042560;28;20102;-82
2022/09/22 00:38:55;;;;;;;7.20;4.50;;;;;;;;;;5042421;28;20049;-81
2022/09/22 00:41:26;;;;;;;5.68;4.30;;;;;;;;;;5045831;28;20045;-81
2022/09/22 00:44:11;;;;;;;6.90;4.20;;;;;;;;;;5042321;28;20049;-81
2022/09/22 00:46:39;;;;;;;8.32;4.75;;;;;;;;;;5042254;28;20083;-81
2022/09/22 00:49:07;;;;;;;6.65;4.28;;;;;;;;;;5043556;28;20052;-81
2022/09/22 00:51:34;;;;;;;6.07;4.53;;;;;;;;;;5047945;28;20049;-81
2022/09/22 00:54:03;;;;;;;6.82;4.72;;;;;;;;;;5047939;28;20041;-81
2022/09/22 00:56:31;;;;;;;8.18;5.30;;;;;;;;;;5038735;28;20100;-82
2022/09/22 00:59:02;;;;;;;7.72;4.97;;;;;;;;;;5044306;28;20408;-83
2022/09/22 01:01:28;;;;;;;7.78;4.55;;;;;;;;;;5042388;28;21862;-83
2022/09/22 01:03:55;;;;;;;8.68;5.07;;;;;;;;;;5049979;28;20488;-83
2022/09/22 01:06:25;;;;;;;8.23;4.80;;;;;;;;;;5043530;28;20059;-82
2022/09/22 01:08:51;;;;;;;6.00;4.60;;;;;;;;;;5050586;28;20650;-82
2022/09/22 01:11:19;;;;;;;7.43;5.15;;;;;;;;;;5043845;28;20052;-82
2022/09/22 01:14:04;;;;;;;7.30;4.90;;;;;;;;;;5051744;28;20485;-83
2022/09/22 01:16:30;;;;;;;5.55;4.93;;;;;;;;;;5048464;28;20045;-82
2022/09/22 01:19:02;;;;;;;7.45;5.43;;;;;;;;;;5043926;28;20048;-82
2022/09/22 01:21:32;;;;;;;8.13;5.20;;;;;;;;;;5047970;28;20052;-82
2022/09/22 01:23:58;;;;;;;7.70;5.50;;;;;;;;;;5050897;28;20465;-82
2022/09/22 01:26:27;;;;;;;7.35;5.25;;;;;;;;;;5042477;28;20087;-82
2022/09/22 01:29:06;;;;;;;6.53;5.28;;;;;;;;;;5037815;28;20052;-82
2022/09/22 01:31:32;;;;;;;9.57;5.65;;;;;;;;;;5049790;28;20049;-81
2022/09/22 01:34:16;;;;;;;8.57;5.63;;;;;;;;;;5048072;28;20394;-81
2022/09/22 01:36:42;;;;;;;6.40;5.75;;;;;;;;;;5051931;28;20067;-82
2022/09/22 01:39:20;;;;;;;8.35;6.40;;;;;;;;;;5051074;28;20037;-82
2022/09/22 01:41:52;;;;;;;8.23;5.38;;;;;;;;;;5042963;28;20040;-82
2022/09/22 01:44:24;;;;;;;6.35;5.55;;;;;;;;;;5051343;28;20056;-82
2022/09/22 01:46:55;;;;;;;10.95;6.32;;;;;;;;;;5050926;28;20500;-82
2022/09/22 01:49:23;;;;;;;7.50;6.05;;;;;;;;;;5047890;28;20049;-82
2022/09/22 01:51:55;;;;;;;7.70;6.30;;;;;;;;;;5048683;28;20040;-82
2022/09/22 01:54:28;;;;;;;7.88;5.70;;;;;;;;;;5048944;28;20052;-82
2022/09/22 01:57:01;;;;;;;7.68;5.70;;;;;;;;;;5046599;28;20044;-82
2022/09/22 01:59:29;;;;;;;8.45;6.28;;;;;;;;;;5045164;28;20056;-82
2022/09/22 02:02:01;;;;;;;7.72;6.10;;;;;;;;;;5045320;28;20095;-81
2022/09/22 02:04:34;;;;;;;10.45;6.43;;;;;;;;;;5051099;28;20049;-82
2022/09/22 02:07:00;;;;;;;;;;;;;;;;;;5050467;28;20041;-82
2022/09/22 02:09:31;;;;;;;8.77;5.97;;;;;;;;;;5040902;28;20291;-82
2022/09/22 02:11:58;;;;;;;9.85;6.40;;;;;;;;;;5046863;28;20045;-82
2022/09/22 02:14:24;;;;;;;8.90;5.88;;;;;;;;;;5045567;28;20048;-81
2022/09/22 02:16:51;;;;;;;8.00;6.28;;;;;;;;;;5049404;28;20053;-82
2022/09/22 02:19:36;;;;;;;7.22;5.60;;;;;;;;;;5049990;28;20110;-83
2022/09/22 02:22:04;;;;;;;7.22;5.50;;;;;;;;;;5048163;28;20188;-82
2022/09/22 02:24:32;;;;;;;7.25;5.65;;;;;;;;;;5050740;28;20068;-82
2022/09/22 02:27:04;;;;;;;6.25;5.60;;;;;;;;;;5049396;28;20045;-82
2022/09/22 02:29:35;;;;;;;5.78;4.70;;;;;;;;;;5050118;28;20045;-83
2022/09/22 02:32:04;;;;;;;6.82;5.35;;;;;;;;;;5040888;28;20118;-81
2022/09/22 02:34:30;;;;;;;7.00;5.97;;;;;;;;;;5040895;28;20052;-82
2022/09/22 02:37:04;;;;;;;8.00;5.55;;;;;;;;;;5035656;28;20045;-82
2022/09/22 02:39:33;;;;;;;6.60;5.05;;;;;;;;;;5045461;28;20049;-82
2022/09/22 02:42:24;;;;;;;6.35;4.82;;;;;;;;;;5047744;28;20459;-82
2022/09/22 02:44:56;;;;;;;5.30;4.80;;;;;;;;;;5049712;28;20106;-81
2022/09/22 02:47:26;;;;;;;8.05;5.35;;;;;;;;;;5050489;28;20413;-82
2022/09/22 02:49:54;;;;;;;7.68;5.35;;;;;;;;;;5048115;28;20049;-81
2022/09/22 02:52:22;;;;;;;6.20;4.68;;;;;;;;;;5047634;28;20412;-82
2022/09/22 02:54:48;;;;;;;5.90;5.10;;;;;;;;;;5045253;28;20037;-82
2022/09/22 02:57:14;;;;;;;4.97;4.53;;;;;;;;;;5044143;28;20036;-81
2022/09/22 02:59:40;;;;;;;5.57;4.70;;;;;;;;;;5048022;28;20487;-82
2022/09/22 03:02:06;;;;;;;6.78;4.57;;;;;;;;;;5050859;28;20047;-82
2022/09/22 03:04:32;;;;;;;6.50;4.88;;;;;;;;;;5043315;28;20057;-82
2022/09/22 03:06:58;;;;;;;5.88;4.78;;;;;;;;;;5043528;28;20048;-82
2022/09/22 03:09:24;;;;;;;5.53;4.63;;;;;;;;;;5046672;28;20033;-82
2022/09/22 03:11:50;;;;;;;8.07;5.10;;;;;;;;;;5046770;28;20044;-82
2022/09/22 03:14:16;;;;;;;8.88;5.50;;;;;;;;;;5042665;28;20033;-82
2022/09/22 03:16:42;;;;;;;5.35;4.80;;;;;;;;;;5045725;28;20037;-82
2022/09/22 03:19:08;;;;;;;5.45;4.90;;;;;;;;;;5045911;28;20044;-82
2022/09/22 03:21:34;;;;;;;9.00;5.15;;;;;;;;;;5047425;28;20131;-81
2022/09/22 03:24:00;;;;;;;5.95;5.05;;;;;;;;;;5045805;28;20064;-82
2022/09/22 03:26:26;;;;;;;6.82;5.20;;;;;;;;;;5040279;28;20052;-81
2022/09/22 03:28:52;;;;;;;6.75;5.03;;;;;;;;;;5045472;28;20033;-82
2022/09/22 03:31:18;;;;;;;5.25;4.68;;;;;;;;;;5046595;28;20059;-82
2022/09/22 03:33:44;;;;;;;6.60;4.97;;;;;;;;;;5046694;28;20049;-82
2022/09/22 03:36:10;;;;;;;4.72;4.32;;;;;;;;;;5042628;28;20407;-82
2022/09/22 03:38:36;;;;;;;7.68;5.20;;;;;;;;;;5043697;28;20060;-81
2022/09/22 03:41:02;;;;;;;7.30;5.15;;;;;;;;;;5048670;28;20108;-82
2022/09/22 03:43:28;;;;;;;5.55;4.63;;;;;;;;;;5038948;28;20124;-81
2022/09/22 03:45:58;;;;;;;6.28;4.70;;;;;;;;;;5044985;28;20068;-81
2022/09/22 03:48:24;;;;;;;6.50;4.57;;;;;;;;;;5040852;28;20041;-81
2022/09/22 03:50:50;;;;;;;5.97;4.50;;;;;;;;;;5039519;28;20044;-82
2022/09/22 03:53:16;;;;;;;5.78;4.68;;;;;;;;;;5046817;28;20086;-82
2022/09/22 03:55:42;;;;;;;5.30;4.80;;;;;;;;;;5046565;28;20053;-82
2022/09/22 03:58:08;;;;;;;7.88;4.88;;;;;;;;;;5042138;28;20045;-82
2022/09/22 04:00:34;;;;;;;5.30;4.80;;;;;;;;;;5045435;28;20045;-82
2022/09/22 04:03:00;;;;;;;7.10;4.78;;;;;;;;;;5049700;28;20048;-82
2022/09/22 04:05:27;;;;;;;7.68;5.40;;;;;;;;;;5038639;28;20532;-82
2022/09/22 04:07:53;;;;;;;6.80;4.80;;;;;;;;;;5045953;28;20064;-82
2022/09/22 04:10:20;;;;;;;5.05;4.40;;;;;;;;;;5042711;28;20128;-81
2022/09/22 04:12:46;;;;;;;6.88;4.60;;;;;;;;;;5045952;28;20044;-81
2022/09/22 04:15:15;;;;;;;6.30;4.70;;;;;;;;;;5045948;28;20049;-82
2022/09/22 04:17:41;;;;;;;8.13;4.95;;;;;;;;;;5046827;28;20036;-82
2022/09/22 04:20:10;;;;;;;6.47;4.93;;;;;;;;;;5041854;28;20385;-83
2022/09/22 04:22:36;;;;;;;5.90;4.90;;;;;;;;;;5042374;28;20516;-81
2022/09/22 04:25:03;;;;;;;6.85;5.47;;;;;;;;;;5041839;28;20055;-81
2022/09/22 04:27:29;;;;;;;5.25;4.75;;;;;;;;;;5047152;28;20045;-82
2022/09/22 04:29:56;;;;;;;6.78;4.75;;;;;;;;;;5043953;28;20060;-82
2022/09/22 04:32:22;;;;;;;7.75;5.85;;;;;;;;;;5043298;28;20519;-82
2022/09/22 04:34:48;;;;;;;7.25;5.57;;;;;;;;;;5045362;28;20655;-82
2022/09/22 04:37:14;;;;;;;5.35;4.72;;;;;;;;;;5053538;28;20041;-83
2022/09/22 04:39:41;;;;;;;7.50;5.20;;;;;;;;;;5047133;28;20048;-82
2022/09/22 04:42:10;;;;;;;5.80;4.70;;;;;;;;;;5049162;28;20044;-83
2022/09/22 04:44:36;;;;;;;7.20;5.13;;;;;;;;;;5058596;28;20048;-81
2022/09/22 04:47:02;;;;;;;7.93;4.93;;;;;;;;;;5048464;28;20508;-82
2022/09/22 04:49:28;;;;;;;6.72;4.97;;;;;;;;;;5050829;28;20076;-82
2022/09/22 04:51:54;;;;;;;8.18;5.32;;;;;;;;;;5053296;28;20567;-83
2022/09/22 04:54:21;;;;;;;9.45;4.72;;;;;;;;;;5047262;28;20045;-82
2022/09/22 04:56:47;;;;;;;10.88;5.50;;;;;;;;;;5046045;28;20177;-82
2022/09/22 04:59:13;;;;;;;7.22;4.95;;;;;;;;;;5049077;28;20124;-82
2022/09/22 05:01:39;;;;;;;6.65;5.18;;;;;;;;;;5052125;28;20387;-82
2022/09/22 05:04:07;;;;;;;8.00;5.30;;;;;;;;;;5049427;28;20060;-82
2022/09/22 05:06:34;;;;;;;6.30;5.07;;;;;;;;;;5045125;28;20082;-81
2022/09/22 05:09:03;;;;;;;5.75;4.90;;;;;;;;;;5052225;28;20151;-82
2022/09/22 05:11:30;;;;;;;6.20;4.90;;;;;;;;;;5046288;28;20048;-82
2022/09/22 05:13:57;;;;;;;6.85;5.40;;;;;;;;;;5048255;28;20055;-82
2022/09/22 05:16:23;;;;;;;7.03;5.18;;;;;;;;;;5046030;28;20048;-82
2022/09/22 05:18:49;;;;;;;7.05;5.15;;;;;;;;;;5045885;28;20098;-81
2022/09/22 05:21:19;;;;;;;6.47;5.20;;;;;;;;;;5048785;28;20053;-82
2022/09/22 05:23:45;;;;;;;6.93;4.88;;;;;;;;;;5050294;28;20033;-82
2022/09/22 05:26:12;;;;;;;5.43;4.50;;;;;;;;;;5050427;28;20037;-81
2022/09/22 05:28:38;;;;;;;5.43;4.78;;;;;;;;;;5049082;28;20084;-81
2022/09/22 05:31:04;;;;;;;6.30;4.80;;;;;;;;;;5040973;28;20042;-82
2022/09/22 05:33:30;;;;;;;7.10;5.40;;;;;;;;;;5048131;28;20043;-82
2022/09/22 05:35:56;;;;;;;6.07;4.50;;;;;;;;;;5044997;28;20045;-82
2022/09/22 05:38:22;;;;;;;7.00;4.95;;;;;;;;;;5039502;28;20139;-83
2022/09/22 05:40:48;;;;;;;7.10;4.95;;;;;;;;;;5047060;28;20477;-81
2022/09/22 05:43:15;;;;;;;5.45;4.85;;;;;;;;;;5048179;28;20051;-81
2022/09/22 05:45:42;;;;;;;6.95;5.30;;;;;;;;;;5041557;28;20447;-81
2022/09/22 05:48:08;;;;;;;5.60;5.07;;;;;;;;;;5047997;28;20103;-82
2022/09/22 05:50:35;;;;;;;7.05;4.80;;;;;;;;;;5043626;28;20041;-82
2022/09/22 05:53:02;;;;;;;6.28;4.72;;;;;;;;;;5051471;28;20059;-83
2022/09/22 05:55:28;;;;;;;6.53;5.05;;;;;;;;;;5042315;28;20053;-84
2022/09/22 05:57:57;;;;;;;5.43;4.72;;;;;;;;;;5043049;28;20135;-84
2022/09/22 06:00:23;;;;;;;8.93;5.18;;;;;;;;;;5053622;28;20057;-85
2022/09/22 06:02:49;;;;;;;6.03;4.70;;;;;;;;;;5052035;28;20049;-84
2022/09/22 06:05:15;;;;;;;6.50;4.85;;;;;;;;;;5046206;28;20551;-85
2022/09/22 06:07:41;;;;;;;6.90;4.55;;;;;;;;;;5054934;28;20481;-85
2022/09/22 06:10:10;;;;;;;7.80;5.32;;;;;;;;;;5052648;28;20041;-85
2022/09/22 06:12:36;;;;;;;7.53;5.30;;;;;;;;;;5038337;28;20596;-84
2022/09/22 06:15:04;;;;;;;6.80;4.97;;;;;;;;;;5050205;28;20097;-84
2022/09/22 06:17:30;;;;;;;7.32;4.97;;;;;;;;;;5050974;28;20045;-84
2022/09/22 06:20:07;;;;;;;7.43;4.50;;;;;;;;;;5041897;28;20041;-85
2022/09/22 06:22:36;;;;;;;6.55;4.85;;;;;;;;;;5034767;28;20061;-84
2022/09/22 06:25:02;;;;;;;7.30;5.15;;;;;;;;;;5050768;28;20048;-84
2022/09/22 06:27:28;;;;;;;6.53;5.63;;;;;;;;;;5044244;28;20051;-85
2022/09/22 06:29:54;;;;;;;5.25;4.72;;;;;;;;;;5040854;28;20471;-84
2022/09/22 06:32:20;;;;;;;5.85;4.82;;;;;;;;;;5032868;28;20055;-85
2022/09/22 06:34:46;;;;;;;12.10;5.38;;;;;;;;;;5045302;28;20037;-84
2022/09/22 06:37:13;;;;;;;6.82;4.85;;;;;;;;;;5050540;28;20143;-86
2022/09/22 06:39:39;;;;;;;6.35;4.88;;;;;;;;;;5051129;28;20048;-84
2022/09/22 06:42:05;;;;;;;6.30;5.20;;;;;;;;;;5045660;28;20049;-85
2022/09/22 06:44:31;;;;;;;8.10;5.10;;;;;;;;;;5050816;28;20041;-83
2022/09/22 06:46:58;;;;;;;6.22;5.25;;;;;;;;;;5049114;28;20045;-83
2022/09/22 06:49:25;;;;;;;7.15;5.70;;;;;;;;;;5051022;28;20131;-84
2022/09/22 06:51:51;;;;;;;7.75;5.35;;;;;;;;;;5039816;28;20041;-82
2022/09/22 06:54:17;;;;;;;8.30;5.32;;;;;;;;;;5049280;28;20036;-83
2022/09/22 06:56:43;;;;;;;5.68;4.95;;;;;;;;;;5043783;28;20053;-82
2022/09/22 06:59:11;;;;;;;9.60;5.82;;;;;;;;;;5050945;28;20124;-84
2022/09/22 07:01:38;;;;;;;7.20;5.57;;;;;;;;;;5064066;28;20055;-84
2022/09/22 07:04:04;;;;;;;7.97;5.63;;;;;;;;;;5049472;28;20109;-83
2022/09/22 07:06:30;;;;;;;7.28;5.32;;;;;;;;;;5042024;28;20128;-85
2022/09/22 07:08:56;;;;;;;8.90;5.75;;;;;;;;;;5043009;28;20186;-83
2022/09/22 07:11:22;;;;;;;6.32;5.70;;;;;;;;;;5038309;28;20128;-84
2022/09/22 07:13:50;;;;;;;7.28;5.80;;;;;;;;;;5047965;28;20037;-84
2022/09/22 07:16:16;;;;;;;9.48;6.03;;;;;;;;;;5044837;28;20048;-83
2022/09/22 07:18:43;;;;;;;6.22;5.30;;;;;;;;;;5047535;28;20048;-83
2022/09/22 07:21:14;;;;;;;7.63;5.47;;;;;;;;;;5048856;28;20127;-84
2022/09/22 07:23:43;;;;;;;9.00;5.38;;;;;;;;;;5043108;28;20153;-84
2022/09/22 07:26:13;;;;;;;9.15;5.60;;;;;;;;;;5051214;28;20079;-84
2022/09/22 07:28:40;;;;;;;7.78;5.47;;;;;;;;;;5048429;28;21660;-84
2022/09/22 07:31:07;;;;;;;9.52;6.05;;;;;;;;;;5044157;28;20131;-85
2022/09/22 07:33:36;;;;;;;7.25;5.35;;;;;;;;;;5045795;28;20501;-84
2022/09/22 07:36:09;;;;;;;7.72;5.13;;;;;;;;;;5046235;28;20041;-82
2022/09/22 07:38:36;;;;;;;8.57;5.28;;;;;;;;;;5030796;28;20072;-85
2022/09/22 07:41:04;;;;;;;6.90;5.63;;;;;;;;;;5046960;28;20528;-84
2022/09/22 07:43:30;;;;;;;7.35;5.60;;;;;;;;;;5050456;28;20047;-84
2022/09/22 07:45:56;;;;;;;7.78;5.88;;;;;;;;;;5041950;28;20049;-84
2022/09/22 07:48:36;;;;;;;6.85;6.10;;;;;;;;;;5040919;28;20072;-84
2022/09/22 07:51:07;;;;;;;7.82;5.95;;;;;;;;;;5051689;28;20033;-84
2022/09/22 07:53:33;;;;;;;7.63;6.22;;;;;;;;;;5041689;28;20127;-86
2022/09/22 07:56:07;;;;;;;8.43;6.32;;;;;;;;;;5050908;28;20048;-84
2022/09/22 07:58:33;;;;;;;9.45;6.47;;;;;;;;;;5051389;28;20564;-84
2022/09/22 08:01:04;;;;;;;9.40;6.38;;;;;;;;;;5050113;28;20057;-84
2022/09/22 08:03:31;;;;;;;8.50;6.75;;;;;;;;;;5040609;28;20119;-85
2022/09/22 08:06:09;;;;;;;8.57;6.85;;;;;;;;;;5047308;28;20052;-86
2022/09/22 08:08:45;;;;;;;7.97;6.50;;;;;;;;;;5052775;28;20041;-86
2022/09/22 08:11:13;;;;;;;7.35;6.53;;;;;;;;;;5052911;28;20052;-85
2022/09/22 08:13:41;;;;;;;8.57;6.97;;;;;;;;;;5042509;28;20102;-84
2022/09/22 08:16:09;;;;;;;8.63;6.30;;;;;;;;;;5045872;28;20400;-85
2022/09/22 08:18:35;;;;;;;11.93;7.47;;;;;;;;;;5052684;28;20060;-84
2022/09/22 08:21:02;;;;;;;8.27;7.47;;;;;;;;;;5050346;28;20037;-85
2022/09/22 08:23:28;;;;;;;9.38;7.57;;;;;;;;;;5051500;28;20084;-85
2022/09/22 08:25:54;;;;;;;7.88;7.00;;;;;;;;;;5055995;28;20048;-84
2022/09/22 08:28:20;;;;;;;10.27;8.02;;;;;;;;;;5052881;28;20041;-85
2022/09/22 08:30:47;;;;;;;10.60;7.60;;;;;;;;;;5048616;28;20076;-83
2022/09/22 08:33:13;;;;;;;8.93;7.47;;;;;;;;;;5053907;28;20044;-83
2022/09/22 08:35:50;;;;;;;8.60;7.32;;;;;;;;;;5051386;28;20064;-83
2022/09/22 08:38:16;;;;;;;10.63;8.20;;;;;;;;;;5053404;28;20138;-82
2022/09/22 08:40:45;;;;;;;10.95;8.68;;;;;;;;;;5050153;28;20485;-84
2022/09/22 08:43:11;;;;;;;9.70;8.70;;;;;;;;;;5053055;28;20049;-84
2022/09/22 08:45:39;;;;;;;12.40;8.50;;;;;;;;;;5045580;28;20102;-84
2022/09/22 08:53:47;;;;;;;11.48;9.05;;;;;;;;;;5039566;28;20053;-85
2022/09/22 08:56:17;;;;;;;11.43;8.90;;;;;;;;;;5044835;28;20107;-85
2022/09/22 08:58:48;;;;;;;10.95;9.02;;;;;;;;;;5045455;28;20131;-84
2022/09/22 09:01:17;;;;;;;10.75;8.60;;;;;;;;;;5041939;28;20073;-84
2022/09/22 09:03:43;;;;;;;10.13;8.05;;;;;;;;;;5038004;28;20524;-84
2022/09/22 09:06:27;;;;;;;9.57;8.00;;;;;;;;;;5051857;28;20048;-88
2022/09/22 09:08:53;;;;;;;9.63;7.40;;;;;;;;;;5049972;28;20044;-85
2022/09/22 09:11:25;;;;;;;8.68;7.35;;;;;;;;;;5049552;28;20136;-84
2022/09/22 09:14:06;;;;;;;10.43;7.50;;;;;;;;;;5048448;28;20489;-84
2022/09/22 09:16:51;;;;;;;9.48;7.03;;;;;;;;;;5044896;28;20136;-83
2022/09/22 09:19:33;;;;;;;8.15;7.35;;;;;;;;;;5040514;28;20037;-84
2022/09/22 09:22:05;;;;;;;8.02;7.20;;;;;;;;;;5047475;28;20072;-84
2022/09/22 09:24:33;;;;;;;10.98;7.13;;;;;;;;;;5052948;28;20099;-84
2022/09/22 09:27:11;;;;;;;8.98;7.28;;;;;;;;;;5051125;28;20056;-84
2022/09/22 09:29:46;;;;;;;9.13;6.93;;;;;;;;;;5053196;28;20048;-83
2022/09/22 09:32:26;;;;;;;10.20;7.07;;;;;;;;;;5057096;28;20488;-85
2022/09/22 09:34:52;;;;;;;10.05;6.88;;;;;;;;;;5035779;28;20044;-84
2022/09/22 09:37:19;;;;;;;6.40;5.68;;;;;;;;;;5052662;28;20056;-83
2022/09/22 09:39:45;;;;;;;7.32;6.63;;;;;;;;;;5043685;28;20037;-84
2022/09/22 09:42:25;;;;;;;8.02;6.07;;;;;;;;;;5048778;28;20049;-86
2022/09/22 09:44:53;;;;;;;8.38;6.45;;;;;;;;;;5047727;28;20068;-86
2022/09/22 09:47:19;;;;;;;8.00;5.93;;;;;;;;;;5048784;28;20503;-85
2022/09/22 09:49:45;;;;;;;7.53;6.22;;;;;;;;;;5052206;28;20068;-86
2022/09/22 09:52:13;;;;;;;9.30;6.10;;;;;;;;;;5052795;28;20044;-84
2022/09/22 09:54:46;;;;;;;6.15;5.55;;;;;;;;;;5038005;28;20092;-83
2022/09/22 09:57:11;;;;;;;7.60;5.90;;;;;;;;;;5046885;28;20132;-83
2022/09/22 10:02:28;;;;;;;11.25;6.32;;;;;;;;;;5066047;28;20109;-81
2022/09/22 10:05:03;;;;;;;7.00;6.30;;;;;;;;;;5035992;28;20065;-84
2022/09/22 10:07:30;;;;;;;6.60;5.93;;;;;;;;;;5041336;28;20457;-84
2022/09/22 10:10:16;;;;;;;8.98;5.88;;;;;;;;;;5034654;28;20045;-83
2022/09/22 10:12:42;;;;;;;9.55;7.03;;;;;;;;;;5041814;28;20466;-86
2022/09/22 10:15:21;;;;;;;9.57;6.10;;;;;;;;;;5049849;28;20128;-84
2022/09/22 10:17:47;;;;;;;9.85;6.20;;;;;;;;;;5039436;28;20048;-88
2022/09/22 10:20:34;;;;;;;11.48;6.10;;;;;;;;;;5045433;28;20049;-87
2022/09/22 10:23:20;;;;;;;8.73;6.15;;;;;;;;;;5045563;28;20029;-87
2022/09/22 10:25:47;;;;;;;8.98;6.55;;;;;;;;;;5048464;28;20041;-90
2022/09/22 10:28:14;;;;;;;7.50;6.57;;;;;;;;;;5036358;28;20053;-91
2022/09/22 10:30:41;;;;;;;10.88;6.75;;;;;;;;;;5047530;28;20037;-88
2022/09/22 10:33:10;;;;;;;8.77;6.55;;;;;;;;;;5049114;28;20063;-87
2022/09/22 10:35:37;;;;;;;8.55;6.32;;;;;;;;;;5051531;28;20190;-80
2022/09/22 10:38:14;;;;;;;7.35;6.00;;;;;;;;;;5046921;28;20048;-87
2022/09/22 10:40:41;;;;;;;7.95;5.00;;;;;;;;;;5061916;28;20195;-86
2022/09/22 10:43:18;;;;;;;8.75;6.05;;;;;;;;;;5038515;28;20069;-85
2022/09/22 10:45:57;;;;;;;8.93;5.72;;;;;;;;;;5048973;28;20103;-87
2022/09/22 10:48:38;;;;;;;6.50;5.10;;;;;;;;;;5039669;28;20143;-84
2022/09/22 10:51:16;;;;;;;7.47;5.95;;;;;;;;;;5052577;28;20060;-88
2022/09/22 10:54:04;;;;;;;7.13;5.28;;;;;;;;;;5039557;28;20045;-86
2022/09/22 10:56:36;;;;;;;9.65;5.88;;;;;;;;;;5051406;28;20049;-88
2022/09/22 10:59:12;;;;;;;7.13;4.93;;;;;;;;;;5047404;28;20055;-88
2022/09/22 11:01:45;;;;;;;4.95;4.53;;;;;;;;;;5050141;28;20045;-88
2022/09/22 11:04:29;;;;;;;9.68;5.22;;;;;;;;;;5043588;28;20049;-88
2022/09/22 11:12:40;;;;;;;5.60;4.40;;;;;;;;;;5050351;28;20389;-86
2022/09/22 11:15:24;;;;;;;8.45;5.13;;;;;;;;;;5045214;28;20055;-87
2022/09/22 11:17:52;;;;;;;6.38;4.95;;;;;;;;;;5050829;28;20049;-86
2022/09/22 11:20:18;;;;;;;6.47;4.80;;;;;;;;;;5042956;28;20046;-91
2022/09/22 11:22:53;;;;;;;5.32;4.80;;;;;;;;;;5039904;28;20055;-88
2022/09/22 11:25:20;;;;;;;7.72;5.30;;;;;;;;;;5037619;28;20053;-88
2022/09/22 11:27:52;;;;;;;8.23;4.65;;;;;;;;;;5052654;28;20041;-88
2022/09/22 11:30:21;;;;;;;5.85;4.40;;;;;;;;;;5047146;28;20049;-88
2022/09/22 11:33:06;;;;;;;7.82;4.55;;;;;;;;;;5047565;28;20049;-84
2022/09/22 11:35:51;;;;;;;4.95;4.30;;;;;;;;;;5044299;28;21021;-87
2022/09/22 11:38:20;;;;;;;6.80;4.20;;;;;;;;;;5050546;28;20190;-90
2022/09/22 11:41:03;;;;;;;7.30;4.22;;;;;;;;;;5044973;28;20120;-92
2022/09/22 11:43:32;;;;;;;8.07;4.97;;;;;;;;;;5047330;28;20045;-89
2022/09/22 11:46:01;;;;;;;6.30;4.70;;;;;;;;;;5041117;28;20037;-91
2022/09/22 11:48:36;;;;;;;5.88;3.83;;;;;;;;;;5039464;28;20135;-90
2022/09/22 11:51:21;;;;;;;5.28;4.53;;;;;;;;;;5045539;28;20132;-87
2022/09/22 11:54:00;;;;;;;4.45;3.85;;;;;;;;;;5051603;28;20049;-91
2022/09/22 11:56:32;;;;;;;5.00;3.72;;;;;;;;;;5051001;28;20136;-89
2022/09/22 11:59:01;;;;;;;5.72;3.90;;;;;;;;;;5047061;28;20072;-88
2022/09/22 12:01:30;;;;;;;8.23;4.25;;;;;;;;;;5059923;28;20045;-92
2022/09/22 12:04:04;;;;;;;4.22;3.78;;;;;;;;;;5051657;28;20053;-94
2022/09/22 12:06:34;;;;;;;4.70;4.10;;;;;;;;;;5069938;28;20044;-90
2022/09/22 12:09:05;;;;;;;8.35;4.13;;;;;;;;;;5072991;28;20052;-96
2022/09/22 12:11:34;;;;;;;5.65;4.28;;;;;;;;;;5050070;28;20074;-93
2022/09/22 12:14:01;;;;;;;6.20;4.10;;;;;;;;;;5038178;28;20485;-92
2022/09/22 12:16:54;;;;;;;4.97;4.32;;;;;;;;;;5052956;28;20068;-89
2022/09/22 12:19:38;;;;;;;5.93;4.30;;;;;;;;;;5059284;28;20086;-88
2022/09/22 12:22:18;;;;;;;4.70;3.70;;;;;;;;;;5051118;28;20041;-90
2022/09/22 12:24:47;;;;;;;4.55;4.05;;;;;;;;;;5041581;28;20529;-89
2022/09/22 12:27:21;;;;;;;5.50;3.90;;;;;;;;;;5057899;28;20080;-92
2022/09/22 12:29:53;;;;;;;9.40;4.28;;;;;;;;;;5065157;28;20219;-93
2022/09/22 12:32:22;;;;;;;4.30;3.83;;;;;;;;;;5059184;28;20053;-91
2022/09/22 12:34:48;;;;;;;7.45;4.22;;;;;;;;;;5055028;28;20056;-93
2022/09/22 12:37:14;;;;;;;4.00;3.45;;;;;;;;;;5056322;28;20040;-94
2022/09/22 12:39:45;;;;;;;6.15;3.30;;;;;;;;;;5054031;28;20049;-92
2022/09/22 12:42:23;;;;;;;5.10;3.45;;;;;;;;;;5053365;28;20055;-87
2022/09/22 12:44:51;;;;;;;4.63;3.15;;;;;;;;;;5043781;28;20052;-90
2022/09/22 12:47:22;;;;;;;5.75;3.17;;;;;;;;;;5070658;28;20045;-92
2022/09/22 12:49:50;;;;;;;5.60;3.65;;;;;;;;;;5059031;28;20053;-94
2022/09/22 12:52:35;;;;;;;3.58;3.17;;;;;;;;;;5045451;28;20053;-93
2022/09/22 12:55:20;;;;;;;3.00;2.70;;;;;;;;;;5040849;28;20516;-93
2022/09/22 12:57:51;;;;;;;5.38;3.00;;;;;;;;;;5060141;28;20103;-93
2022/09/22 13:00:29;;;;;;;4.05;3.00;;;;;;;;;;5074197;28;20611;-94
2022/09/22 13:02:56;;;;;;;9.10;3.60;;;;;;;;;;5055435;28;20086;-88
2022/09/22 13:05:25;;;;;;;4.82;2.80;;;;;;;;;;5052766;28;20057;-93
2022/09/22 13:07:52;;;;;;;4.60;2.60;;;;;;;;;;5058565;28;20052;-88
2022/09/22 13:10:21;;;;;;;5.03;3.03;;;;;;;;;;5056488;28;20098;-91
2022/09/22 13:13:04;;;;;;;4.65;3.15;;;;;;;;;;5058869;28;20043;-89
2022/09/22 13:15:48;;;;;;;4.80;2.70;;;;;;;;;;5062064;28;20068;-91
2022/09/22 13:18:26;;;;;;;3.35;2.60;;;;;;;;;;5055781;28;20106;-88
2022/09/22 13:20:52;;;;;;;2.85;2.17;;;;;;;;;;5050540;28;20400;-87
2022/09/22 13:23:18;;;;;;;4.47;2.63;;;;;;;;;;5049559;28;20041;-94
2022/09/22 13:25:44;;;;;;;4.38;2.95;;;;;;;;;;5055731;28;20037;-90
2022/09/22 13:28:28;;;;;;;4.05;2.90;;;;;;;;;;5052138;28;20055;-90
2022/09/22 13:31:02;;;;;;;4.75;3.08;;;;;;;;;;5055662;28;20131;-88
2022/09/22 13:33:31;;;;;;;3.85;2.75;;;;;;;;;;5050451;28;20049;-92
2022/09/22 13:36:08;;;;;;;4.13;2.53;;;;;;;;;;5049146;28;20130;-90
2022/09/22 13:38:42;;;;;;;6.30;2.80;;;;;;;;;;5057283;28;20049;-91
2022/09/22 13:41:12;;;;;;;3.60;2.47;;;;;;;;;;5062985;28;20037;-89
2022/09/22 13:43:43;;;;;;;4.85;2.50;;;;;;;;;;5055645;28;20416;-92
2022/09/22 13:46:23;;;;;;;3.65;2.67;;;;;;;;;;5055374;28;20044;-92
2022/09/22 13:48:50;;;;;;;5.45;2.83;;;;;;;;;;5051536;28;20041;-94
2022/09/22 13:51:17;;;;;;;4.43;2.63;;;;;;;;;;5051790;28;20040;-95
2022/09/22 13:53:51;;;;;;;3.35;2.60;;;;;;;;;;5044724;28;20045;-92
2022/09/22 13:56:18;;;;;;;4.75;2.40;;;;;;;;;;5060146;28;20049;-92
2022/09/22 13:58:45;;;;;;;3.83;2.40;;;;;;;;;;5049182;28;20044;-89
2022/09/22 14:01:16;;;;;;;2.95;2.60;;;;;;;;;;5040843;28;20041;-89
2022/09/22 14:03:42;;;;;;;4.30;2.22;;;;;;;;;;5045132;28;20045;-86
2022/09/22 14:06:11;;;;;;;3.33;2.30;;;;;;;;;;5036895;28;20077;-93
2022/09/22 14:08:37;;;;;;;4.90;2.20;;;;;;;;;;5040711;28;20045;-88
2022/09/22 14:11:06;;;;;;;4.88;2.25;;;;;;;;;;5045455;28;20076;-94
2022/09/22 14:13:40;;;;;;;5.20;2.40;;;;;;;;;;5046012;28;20064;-92
2022/09/22 14:16:20;;;;;;;3.13;1.80;;;;;;;;;;5047186;28;20072;-89
2022/09/22 14:18:48;;;;;;;3.03;1.95;;;;;;;;;;5044277;28;20035;-89
2022/09/22 14:21:14;;;;;;;4.18;1.90;;;;;;;;;;5050920;28;20063;-92
2022/09/22 14:23:48;;;;;;;2.17;1.83;;;;;;;;;;5052244;28;20049;-89
2022/09/22 14:26:34;;;;;;;2.85;1.90;;;;;;;;;;5039870;28;20105;-89
2022/09/22 14:29:30;;;;;;;2.95;1.80;;;;;;;;;;5044112;28;20073;-85
2022/09/22 14:32:04;;;;;;;3.05;1.70;;;;;;;;;;5039413;28;20056;-89
2022/09/22 14:34:32;;;;;;;3.90;1.60;;;;;;;;;;5044973;28;20075;-82
2022/09/22 14:37:01;;;;;;;3.53;1.73;;;;;;;;;;5055232;28;20495;-88
2022/09/22 14:39:32;;;;;;;3.58;2.30;;;;;;;;;;5063661;28;20156;-90
2022/09/22 14:42:05;;;;;;;2.88;2.08;;;;;;;;;;5042610;28;20045;-88
2022/09/22 14:44:48;;;;;;;5.78;2.25;;;;;;;;;;5044710;28;20059;-89
2022/09/22 14:47:25;;;;;;;4.43;2.22;;;;;;;;;;5037662;28;20435;-91
2022/09/22 14:50:10;;;;;;;3.53;2.13;;;;;;;;;;5039893;28;20106;-85
2022/09/22 14:52:41;;;;;;;3.17;2.28;;;;;;;;;;5038740;28;20083;-81
2022/09/22 14:55:28;;;;;;;5.28;2.40;;;;;;;;;;5050160;28;20556;-82
2022/09/22 14:57:54;;;;;;;4.32;2.53;;;;;;;;;;5045923;28;20045;-84
2022/09/22 15:03:14;;;;;;;3.58;2.50;;;;;;;;;;5047539;28;20045;-86
2022/09/22 15:05:42;;;;;;;3.67;2.92;;;;;;;;;;5049827;28;20541;-85
2022/09/22 15:08:17;;;;;;;5.45;2.83;;;;;;;;;;5045602;28;20124;-80
2022/09/22 15:10:51;;;;;;;4.63;2.92;;;;;;;;;;5045190;28;20115;-80
2022/09/22 15:13:18;;;;;;;4.22;2.50;;;;;;;;;;5045120;28;20045;-80
2022/09/22 15:15:46;;;;;;;3.25;2.05;;;;;;;;;;5044737;28;20075;-80
2022/09/22 15:18:12;;;;;;;3.15;2.70;;;;;;;;;;5046958;28;20103;-81